createdAt,value
2022-08-26T00:02:20.503Z,24.21
2022-08-26T00:04:51.206Z,24.24
2022-08-26T00:07:21.161Z,24.20
2022-08-26T00:09:50.127Z,24.24
2022-08-26T00:12:23.306Z,24.19
2022-08-26T00:15:07.463Z,23.94
2022-08-26T00:17:36.700Z,22.98
2022-08-26T00:20:12.788Z,22.67
2022-08-26T00:22:42.975Z,22.24
2022-08-26T00:25:13.358Z,22.66
2022-08-26T00:27:44.094Z,22.89
2022-08-26T00:30:15.259Z,23.02
2022-08-26T00:32:46.330Z,23.28
2022-08-26T00:35:17.213Z,23.46
2022-08-26T00:37:47.028Z,23.44
2022-08-26T00:40:19.047Z,23.55
2022-08-26T00:42:48.389Z,23.68
2022-08-26T00:45:17.750Z,23.51
2022-08-26T00:47:50.788Z,23.60
2022-08-26T00:50:27.006Z,23.30
2022-08-26T00:52:59.258Z,23.30
2022-08-26T00:55:38.181Z,23.48
2022-08-26T00:58:08.297Z,23.51
2022-08-26T01:00:37.364Z,23.45
2022-08-26T01:03:11.444Z,23.74
2022-08-26T01:05:42.649Z,23.49
2022-08-26T01:08:11.623Z,23.45
2022-08-26T01:10:41.202Z,23.53
2022-08-26T01:13:12.395Z,23.29
2022-08-26T01:15:46.201Z,22.83
2022-08-26T01:18:16.231Z,22.83
2022-08-26T01:20:57.926Z,23.05
2022-08-26T01:23:34.809Z,22.98
2022-08-26T01:26:09.183Z,23.05
2022-08-26T01:28:51.957Z,22.97
2022-08-26T01:31:25.050Z,23.11
2022-08-26T01:34:00.858Z,23.06
2022-08-26T01:36:30.822Z,23.14
2022-08-26T01:39:01.131Z,23.00
2022-08-26T01:41:35.481Z,22.97
2022-08-26T01:44:07.900Z,23.11
2022-08-26T01:46:38.944Z,23.04
2022-08-26T01:49:09.779Z,23.04
2022-08-26T01:51:40.409Z,22.93
2022-08-26T01:54:13.740Z,22.72
2022-08-26T01:56:43.080Z,22.80
2022-08-26T01:59:16.090Z,22.59
2022-08-26T02:01:46.199Z,22.57
2022-08-26T02:04:20.165Z,22.63
2022-08-26T02:06:50.759Z,22.68
2022-08-26T02:09:22.643Z,22.67
2022-08-26T02:11:52.546Z,22.79
2022-08-26T02:14:27.077Z,22.65
2022-08-26T02:16:57.124Z,22.78
2022-08-26T02:19:31.334Z,22.52
2022-08-26T02:22:04.579Z,22.42
2022-08-26T02:24:49.578Z,22.50
2022-08-26T02:27:20.526Z,22.46
2022-08-26T02:29:55.020Z,22.68
2022-08-26T02:32:24.031Z,22.80
2022-08-26T02:34:53.139Z,22.70
2022-08-26T02:37:23.007Z,22.71
2022-08-26T02:39:53.364Z,22.68
2022-08-26T02:42:22.380Z,22.73
2022-08-26T02:44:51.874Z,22.71
2022-08-26T02:47:20.770Z,22.71
2022-08-26T02:49:53.952Z,22.70
2022-08-26T02:52:22.880Z,22.68
2022-08-26T02:54:53.772Z,22.51
2022-08-26T02:57:22.983Z,22.66
2022-08-26T02:59:53.316Z,22.43
2022-08-26T03:02:22.327Z,22.26
2022-08-26T03:04:58.066Z,22.12
2022-08-26T03:07:32.492Z,21.61
2022-08-26T03:10:08.462Z,21.60
2022-08-26T03:12:37.861Z,21.86
2022-08-26T03:15:16.026Z,22.17
2022-08-26T03:17:47.819Z,22.11
2022-08-26T03:20:17.525Z,22.10
2022-08-26T03:22:46.803Z,22.14
2022-08-26T03:25:19.188Z,22.28
2022-08-26T03:27:48.016Z,22.27
2022-08-26T03:30:34.910Z,22.39
2022-08-26T03:33:03.974Z,22.14
2022-08-26T03:35:33.054Z,22.21
2022-08-26T03:38:03.376Z,22.37
2022-08-26T03:40:33.898Z,22.40
2022-08-26T03:43:03.528Z,22.47
2022-08-26T03:45:32.701Z,21.58
2022-08-26T03:48:01.972Z,21.75
2022-08-26T03:50:31.150Z,22.35
2022-08-26T03:53:03.445Z,22.70
2022-08-26T03:55:34.592Z,22.62
2022-08-26T03:58:03.533Z,22.30
2022-08-26T04:00:32.426Z,22.56
2022-08-26T04:03:03.522Z,22.17
2022-08-26T04:05:32.411Z,21.94
2022-08-26T04:08:01.360Z,21.99
2022-08-26T04:10:31.199Z,22.68
2022-08-26T04:13:02.519Z,22.27
2022-08-26T04:15:31.532Z,22.62
2022-08-26T04:18:00.330Z,22.99
2022-08-26T04:20:29.365Z,23.15
2022-08-26T04:22:58.372Z,23.29
2022-08-26T04:25:27.275Z,23.37
2022-08-26T04:27:56.434Z,23.41
2022-08-26T04:30:27.780Z,23.53
2022-08-26T04:32:56.731Z,23.70
2022-08-26T04:35:26.623Z,23.87
2022-08-26T04:37:56.235Z,23.77
2022-08-26T04:40:27.757Z,23.86
2022-08-26T04:42:56.820Z,23.90
2022-08-26T04:45:28.408Z,23.64
2022-08-26T04:47:57.639Z,23.22
2022-08-26T04:50:27.038Z,23.53
2022-08-26T04:52:56.515Z,23.34
2022-08-26T04:55:38.337Z,23.47
2022-08-26T04:58:10.233Z,23.33
2022-08-26T05:00:40.835Z,22.31
2022-08-26T05:03:10.526Z,22.71
2022-08-26T05:05:41.539Z,23.03
2022-08-26T05:08:11.624Z,23.11
2022-08-26T05:10:42.832Z,22.72
2022-08-26T05:13:15.470Z,23.18
2022-08-26T05:15:47.210Z,23.22
2022-08-26T05:18:19.910Z,23.46
2022-08-26T05:20:51.743Z,23.58
2022-08-26T05:23:24.465Z,23.31
2022-08-26T05:25:59.482Z,23.52
2022-08-26T05:28:30.920Z,23.40
2022-08-26T05:31:01.393Z,23.55
2022-08-26T05:33:30.599Z,23.70
2022-08-26T05:35:59.422Z,24.04
2022-08-26T05:38:30.122Z,24.43
2022-08-26T05:40:59.479Z,24.16
2022-08-26T05:43:29.336Z,24.29
2022-08-26T05:46:07.376Z,24.45
2022-08-26T05:48:36.503Z,24.60
2022-08-26T05:51:08.564Z,24.79
2022-08-26T05:53:39.284Z,24.86
2022-08-26T05:56:10.286Z,25.12
2022-08-26T05:58:41.014Z,25.17
2022-08-26T06:01:14.478Z,25.06
2022-08-26T06:03:47.029Z,25.74
2022-08-26T06:06:20.105Z,25.80
2022-08-26T06:08:51.235Z,25.80
2022-08-26T06:11:25.410Z,25.51
2022-08-26T06:13:58.922Z,25.60
2022-08-26T06:16:35.134Z,25.71
2022-08-26T06:19:10.768Z,25.84
2022-08-26T06:21:43.584Z,25.95
2022-08-26T06:24:31.899Z,25.99
2022-08-26T06:27:02.670Z,25.84
2022-08-26T06:29:34.263Z,25.80
2022-08-26T06:32:05.561Z,25.84
2022-08-26T06:34:34.580Z,25.94
2022-08-26T06:37:06.484Z,25.79
2022-08-26T06:39:35.821Z,25.94
2022-08-26T06:42:10.934Z,26.05
2022-08-26T06:44:41.741Z,26.00
2022-08-26T06:47:15.136Z,25.94
2022-08-26T06:49:44.238Z,25.84
2022-08-26T06:52:13.234Z,25.60
2022-08-26T06:54:44.267Z,25.67
2022-08-26T06:57:14.246Z,25.82
2022-08-26T06:59:45.742Z,25.73
2022-08-26T07:02:16.248Z,25.71
2022-08-26T07:04:47.946Z,25.92
2022-08-26T07:07:17.270Z,26.06
2022-08-26T07:09:48.408Z,25.93
2022-08-26T07:12:21.493Z,26.12
2022-08-26T07:14:50.656Z,26.13
2022-08-26T07:17:21.141Z,26.20
2022-08-26T07:19:54.116Z,26.33
2022-08-26T07:22:22.960Z,26.35
2022-08-26T07:24:53.121Z,26.53
2022-08-26T07:27:22.209Z,26.59
2022-08-26T07:29:51.108Z,26.30
2022-08-26T07:32:22.943Z,26.57
2022-08-26T07:34:52.496Z,26.68
2022-08-26T07:37:21.345Z,26.59
2022-08-26T07:39:50.313Z,26.82
2022-08-26T07:42:20.492Z,26.54
2022-08-26T07:44:49.603Z,26.83
2022-08-26T07:47:25.238Z,27.00
2022-08-26T07:49:57.816Z,27.02
2022-08-26T07:52:29.735Z,27.15
2022-08-26T07:55:01.633Z,27.27
2022-08-26T07:57:31.326Z,27.39
2022-08-26T08:00:00.819Z,27.30
2022-08-26T08:02:30.508Z,27.33
2022-08-26T08:05:00.958Z,27.52
2022-08-26T08:07:44.979Z,27.43
2022-08-26T08:10:17.398Z,27.54
2022-08-26T08:12:46.487Z,27.75
2022-08-26T08:15:16.236Z,27.91
2022-08-26T08:17:45.480Z,27.67
2022-08-26T08:20:15.958Z,27.69
2022-08-26T08:22:44.919Z,27.60
2022-08-26T08:25:14.763Z,27.63
2022-08-26T08:27:45.814Z,27.44
2022-08-26T08:30:22.884Z,27.53
2022-08-26T08:32:52.758Z,27.50
2022-08-26T08:35:24.131Z,27.58
2022-08-26T08:37:55.612Z,27.62
2022-08-26T08:40:29.227Z,27.77
2022-08-26T08:43:03.965Z,27.44
2022-08-26T08:45:37.207Z,27.24
2022-08-26T08:48:12.308Z,27.16
2022-08-26T08:50:46.516Z,27.28
2022-08-26T08:53:20.470Z,27.49
2022-08-26T08:55:57.064Z,27.79
2022-08-26T08:58:32.887Z,28.22
2022-08-26T09:01:07.115Z,28.69
2022-08-26T09:03:51.960Z,29.24
2022-08-26T09:06:22.651Z,29.72
2022-08-26T09:08:53.062Z,30.28
2022-08-26T09:11:23.467Z,30.90
2022-08-26T09:13:57.717Z,30.43
2022-08-26T09:16:42.066Z,30.44
2022-08-26T09:19:19.364Z,30.38
2022-08-26T09:21:58.380Z,30.40
2022-08-26T09:24:28.551Z,29.98
2022-08-26T09:26:59.373Z,29.58
2022-08-26T09:29:31.122Z,29.35
2022-08-26T09:32:19.431Z,29.23
2022-08-26T09:34:59.053Z,29.39
2022-08-26T09:37:39.609Z,29.46
2022-08-26T09:40:22.569Z,29.55
2022-08-26T09:43:08.912Z,29.27
2022-08-26T09:45:38.960Z,29.14
2022-08-26T09:48:09.153Z,30.30
2022-08-26T09:50:53.188Z,30.55
2022-08-26T09:53:28.829Z,30.36
2022-08-26T09:56:18.265Z,30.21
2022-08-26T09:58:48.916Z,30.47
2022-08-26T10:01:32.215Z,30.91
2022-08-26T10:04:09.824Z,31.12
2022-08-26T10:06:42.994Z,30.69
2022-08-26T10:09:18.780Z,32.49
2022-08-26T10:11:51.437Z,32.38
2022-08-26T10:14:25.636Z,32.17
2022-08-26T10:17:00.742Z,31.15
2022-08-26T10:19:55.544Z,30.77
2022-08-26T10:22:32.659Z,30.21
2022-08-26T10:25:07.866Z,30.41
2022-08-26T10:27:44.557Z,30.60
2022-08-26T10:30:22.885Z,32.01
2022-08-26T10:32:55.963Z,33.00
2022-08-26T10:35:27.126Z,33.89
2022-08-26T10:37:59.627Z,34.48
2022-08-26T10:40:38.979Z,34.25
2022-08-26T10:43:15.259Z,35.30
2022-08-26T10:45:52.077Z,35.96
2022-08-26T10:48:26.029Z,36.21
2022-08-26T10:51:05.722Z,35.16
2022-08-26T10:53:51.572Z,35.93
2022-08-26T10:56:34.156Z,35.42
2022-08-26T10:59:12.431Z,35.79
2022-08-26T11:01:52.439Z,35.19
2022-08-26T11:04:45.642Z,35.02
2022-08-26T11:07:37.445Z,34.52
2022-08-26T11:10:58.842Z,34.05
2022-08-26T11:14:02.861Z,34.09
2022-08-26T11:16:42.950Z,33.76
2022-08-26T11:19:58.879Z,34.42
2022-08-26T11:22:28.528Z,35.52
2022-08-26T11:25:13.151Z,36.05
2022-08-26T11:28:03.272Z,35.84
2022-08-26T11:30:57.705Z,35.94
2022-08-26T11:33:58.278Z,35.67
2022-08-26T11:36:39.875Z,35.72
2022-08-26T11:39:20.336Z,36.32
2022-08-26T11:41:52.909Z,36.38
2022-08-26T11:44:24.142Z,36.73
2022-08-26T11:46:57.441Z,36.38
2022-08-26T11:49:28.272Z,35.10
2022-08-26T11:52:14.593Z,34.69
2022-08-26T11:55:00.513Z,34.73
2022-08-26T11:57:29.933Z,35.23
2022-08-26T11:59:59.087Z,35.10
2022-08-26T12:02:30.043Z,34.91
2022-08-26T12:04:58.943Z,34.82
2022-08-26T12:07:30.133Z,35.00
2022-08-26T12:10:02.590Z,33.58
2022-08-26T12:12:35.977Z,33.85
2022-08-26T12:15:16.728Z,33.93
2022-08-26T12:17:52.938Z,34.62
2022-08-26T12:20:46.093Z,34.52
2022-08-26T12:23:32.368Z,34.11
2022-08-26T12:26:08.456Z,34.01
2022-08-26T12:28:44.648Z,34.75
2022-08-26T12:31:20.529Z,34.78
2022-08-26T12:33:52.164Z,35.49
2022-08-26T12:36:24.802Z,35.52
2022-08-26T12:38:57.601Z,34.97
2022-08-26T12:41:41.990Z,34.96
2022-08-26T12:44:31.046Z,35.33
2022-08-26T12:47:04.692Z,34.83
2022-08-26T12:49:35.352Z,34.99
2022-08-26T12:52:05.568Z,35.53
2022-08-26T12:54:56.558Z,35.80
2022-08-26T12:57:29.143Z,35.60
2022-08-26T13:00:33.449Z,35.84
2022-08-26T13:03:03.233Z,35.49
2022-08-26T13:05:36.227Z,34.65
2022-08-26T13:08:17.232Z,34.94
2022-08-26T13:10:48.970Z,35.12
2022-08-26T13:13:17.886Z,35.49
2022-08-26T13:15:46.743Z,35.55
2022-08-26T13:18:15.659Z,35.32
2022-08-26T13:20:46.275Z,35.33
2022-08-26T13:23:15.574Z,35.16
2022-08-26T13:25:45.064Z,35.35
2022-08-26T13:28:13.885Z,34.90
2022-08-26T13:30:45.751Z,34.86
2022-08-26T13:33:16.762Z,34.71
2022-08-26T13:35:48.571Z,34.89
2022-08-26T13:38:20.593Z,35.22
2022-08-26T13:41:03.649Z,34.39
2022-08-26T13:43:32.998Z,34.90
2022-08-26T13:46:02.695Z,34.65
2022-08-26T13:48:31.930Z,35.06
2022-08-26T13:51:03.403Z,35.48
2022-08-26T13:53:37.789Z,35.62
2022-08-26T13:56:11.090Z,35.67
2022-08-26T13:58:40.028Z,35.34
2022-08-26T14:01:09.905Z,35.34
2022-08-26T14:03:39.461Z,35.27
2022-08-26T14:06:10.215Z,34.48
2022-08-26T14:08:39.608Z,34.69
2022-08-26T14:11:08.969Z,34.31
2022-08-26T14:13:37.890Z,34.59
2022-08-26T14:16:11.657Z,34.74
2022-08-26T14:18:47.306Z,35.07
2022-08-26T14:21:20.625Z,35.17
2022-08-26T14:23:49.801Z,35.15
2022-08-26T14:26:28.233Z,34.88
2022-08-26T14:28:59.767Z,35.05
2022-08-26T14:31:30.180Z,34.90
2022-08-26T14:34:01.251Z,34.58
2022-08-26T14:36:32.690Z,34.95
2022-08-26T14:39:03.870Z,35.12
2022-08-26T14:41:34.737Z,34.68
2022-08-26T14:44:06.713Z,34.71
2022-08-26T14:46:42.005Z,33.86
2022-08-26T14:49:11.179Z,33.78
2022-08-26T14:51:42.014Z,34.28
2022-08-26T14:54:13.166Z,34.24
2022-08-26T14:56:48.602Z,34.08
2022-08-26T14:59:20.888Z,34.22
2022-08-26T15:01:50.017Z,34.25
2022-08-26T15:04:20.250Z,34.00
2022-08-26T15:06:51.663Z,33.85
2022-08-26T15:09:21.147Z,33.71
2022-08-26T15:11:50.307Z,33.50
2022-08-26T15:14:20.105Z,33.34
2022-08-26T15:16:49.548Z,32.97
2022-08-26T15:19:19.339Z,33.51
2022-08-26T15:21:48.320Z,33.69
2022-08-26T15:24:21.591Z,33.52
2022-08-26T15:26:50.941Z,32.97
2022-08-26T15:29:20.322Z,33.59
2022-08-26T15:31:49.311Z,33.36
2022-08-26T15:34:18.685Z,32.55
2022-08-26T15:36:48.337Z,32.52
2022-08-26T15:39:18.841Z,32.66
2022-08-26T15:41:48.244Z,32.32
2022-08-26T15:44:21.233Z,32.53
2022-08-26T15:46:54.248Z,31.87
2022-08-26T15:49:25.492Z,32.30
2022-08-26T15:51:54.538Z,31.99
2022-08-26T15:54:25.166Z,32.05
2022-08-26T15:56:54.071Z,31.67
2022-08-26T15:59:23.774Z,31.81
2022-08-26T16:01:53.192Z,31.76
2022-08-26T16:04:22.458Z,31.63
2022-08-26T16:06:52.299Z,31.50
2022-08-26T16:09:24.335Z,31.06
2022-08-26T16:11:55.865Z,31.01
2022-08-26T16:14:25.555Z,31.02
2022-08-26T16:16:54.858Z,30.97
2022-08-26T16:19:23.746Z,30.75
2022-08-26T16:21:52.654Z,30.49
2022-08-26T16:24:27.121Z,30.49
2022-08-26T16:27:00.470Z,30.17
2022-08-26T16:29:29.446Z,30.02
2022-08-26T16:31:58.200Z,29.82
2022-08-26T16:34:27.178Z,29.71
2022-08-26T16:36:55.942Z,29.68
2022-08-26T16:39:24.825Z,29.84
2022-08-26T16:41:53.691Z,29.50
2022-08-26T16:44:24.003Z,29.17
2022-08-26T16:46:58.504Z,29.12
2022-08-26T16:49:27.815Z,29.18
2022-08-26T16:51:56.860Z,29.06
2022-08-26T16:54:25.732Z,28.94
2022-08-26T16:56:54.550Z,28.93
2022-08-26T16:59:24.846Z,28.77
2022-08-26T17:01:53.865Z,28.69
2022-08-26T17:04:23.078Z,28.60
2022-08-26T17:06:51.918Z,28.49
2022-08-26T17:09:21.119Z,28.40
2022-08-26T17:11:50.741Z,28.26
2022-08-26T17:14:20.401Z,28.04
2022-08-26T17:16:53.410Z,28.04
2022-08-26T17:19:40.762Z,28.15
2022-08-26T17:22:12.523Z,27.56
2022-08-26T17:24:41.370Z,27.57
2022-08-26T17:27:10.382Z,27.65
2022-08-26T17:29:39.245Z,27.54
2022-08-26T17:32:09.617Z,27.13
2022-08-26T17:34:38.472Z,27.41
2022-08-26T17:37:08.379Z,27.50
2022-08-26T17:39:42.500Z,27.40
2022-08-26T17:42:12.293Z,27.55
2022-08-26T17:44:41.318Z,27.45
2022-08-26T17:47:11.570Z,27.61
2022-08-26T17:49:40.852Z,27.63
2022-08-26T17:52:11.534Z,27.58
2022-08-26T17:54:40.584Z,27.56
2022-08-26T17:57:10.646Z,27.37
2022-08-26T17:59:40.996Z,27.26
2022-08-26T18:02:11.340Z,27.03
2022-08-26T18:04:40.442Z,26.43
2022-08-26T18:07:09.266Z,26.52
2022-08-26T18:09:38.191Z,25.94
2022-08-26T18:12:07.581Z,26.28
2022-08-26T18:14:37.287Z,26.30
2022-08-26T18:17:06.484Z,26.18
2022-08-26T18:19:37.173Z,26.23
2022-08-26T18:22:07.052Z,26.01
2022-08-26T18:24:35.855Z,25.71
2022-08-26T18:27:05.053Z,25.75
2022-08-26T18:29:34.037Z,25.64
2022-08-26T18:32:03.385Z,25.50
2022-08-26T18:34:32.194Z,24.92
2022-08-26T18:37:02.619Z,25.15
2022-08-26T18:39:31.640Z,25.19
2022-08-26T18:42:00.468Z,25.38
2022-08-26T18:44:29.376Z,25.11
2022-08-26T18:46:58.231Z,25.17
2022-08-26T18:49:27.131Z,24.84
2022-08-26T18:51:55.981Z,25.15
2022-08-26T18:54:26.375Z,25.16
2022-08-26T18:56:55.270Z,24.94
2022-08-26T18:59:29.718Z,24.59
2022-08-26T19:02:00.324Z,24.57
2022-08-26T19:04:29.332Z,24.56
2022-08-26T19:06:58.500Z,24.56
2022-08-26T19:09:28.717Z,24.31
2022-08-26T19:11:57.664Z,24.31
2022-08-26T19:14:27.503Z,24.63
2022-08-26T19:16:56.633Z,23.99
2022-08-26T19:19:25.745Z,23.95
2022-08-26T19:21:54.825Z,23.89
2022-08-26T19:24:28.079Z,23.84
2022-08-26T19:27:00.847Z,23.88
2022-08-26T19:29:31.707Z,23.74
2022-08-26T19:32:01.965Z,23.76
2022-08-26T19:34:31.353Z,23.69
2022-08-26T19:37:00.420Z,23.84
2022-08-26T19:39:29.517Z,23.64
2022-08-26T19:42:00.447Z,23.82
2022-08-26T19:44:46.950Z,23.63
2022-08-26T19:47:15.822Z,23.26
2022-08-26T19:49:45.743Z,23.29
2022-08-26T19:52:15.103Z,23.21
2022-08-26T19:54:44.517Z,22.97
2022-08-26T19:57:14.777Z,23.25
2022-08-26T19:59:44.509Z,23.35
2022-08-26T20:02:13.452Z,23.21
2022-08-26T20:04:42.965Z,23.36
2022-08-26T20:07:15.290Z,23.29
2022-08-26T20:09:47.970Z,23.46
2022-08-26T20:12:18.738Z,23.29
2022-08-26T20:14:48.057Z,23.18
2022-08-26T20:17:17.199Z,23.05
2022-08-26T20:20:03.401Z,22.87
2022-08-26T20:22:32.419Z,22.72
2022-08-26T20:25:01.433Z,22.78
2022-08-26T20:27:38.069Z,22.85
2022-08-26T20:30:09.378Z,22.39
2022-08-26T20:32:39.420Z,22.45
2022-08-26T20:35:12.373Z,22.22
2022-08-26T20:37:42.277Z,22.09
2022-08-26T20:40:13.791Z,22.15
2022-08-26T20:42:44.110Z,22.11
2022-08-26T20:45:13.108Z,22.14
2022-08-26T20:47:43.632Z,22.03
2022-08-26T20:50:12.513Z,22.06
2022-08-26T20:52:41.348Z,22.01
2022-08-26T20:55:11.179Z,21.89
2022-08-26T20:57:43.271Z,21.91
2022-08-26T21:00:16.504Z,21.89
2022-08-26T21:02:47.214Z,22.07
2022-08-26T21:05:16.145Z,21.94
2022-08-26T21:07:45.228Z,21.99
2022-08-26T21:10:14.154Z,21.81
2022-08-26T21:12:43.205Z,21.81
2022-08-26T21:15:13.586Z,21.73
2022-08-26T21:17:42.449Z,21.91
2022-08-26T21:20:11.557Z,21.86
2022-08-26T21:22:40.738Z,22.14
2022-08-26T21:25:10.754Z,22.02
2022-08-26T21:27:40.139Z,21.97
2022-08-26T21:30:10.524Z,21.93
2022-08-26T21:32:40.869Z,21.99
2022-08-26T21:35:10.901Z,21.76
2022-08-26T21:37:39.759Z,21.68
2022-08-26T21:40:10.518Z,21.76
2022-08-26T21:42:39.420Z,21.75
2022-08-26T21:45:10.029Z,21.74
2022-08-26T21:47:40.684Z,21.73
2022-08-26T21:50:10.378Z,21.52
2022-08-26T21:52:39.836Z,21.60
2022-08-26T21:55:11.747Z,21.39
2022-08-26T21:57:40.878Z,21.43
2022-08-26T22:00:13.212Z,21.45
2022-08-26T22:02:43.534Z,21.28
2022-08-26T22:05:12.499Z,21.42
2022-08-26T22:07:41.360Z,21.47
2022-08-26T22:10:10.887Z,21.45
2022-08-26T22:12:39.758Z,21.55
2022-08-26T22:15:10.205Z,21.22
2022-08-26T22:17:39.088Z,21.41
2022-08-26T22:20:16.735Z,21.06
2022-08-26T22:22:45.832Z,21.02
2022-08-26T22:25:14.854Z,20.58
2022-08-26T22:27:43.836Z,20.67
2022-08-26T22:30:13.372Z,20.83
2022-08-26T22:32:43.906Z,20.77
2022-08-26T22:35:29.337Z,20.86
2022-08-26T22:37:59.388Z,20.76
2022-08-26T22:40:28.381Z,21.04
2022-08-26T22:42:59.983Z,21.08
2022-08-26T22:45:31.421Z,21.01
2022-08-26T22:48:01.668Z,21.07
2022-08-26T22:50:32.034Z,21.01
2022-08-26T22:53:00.949Z,20.76
2022-08-26T22:55:30.064Z,20.97
2022-08-26T22:57:58.979Z,20.76
2022-08-26T23:00:31.861Z,20.59
2022-08-26T23:03:01.431Z,20.50
2022-08-26T23:05:32.056Z,20.12
2022-08-26T23:08:01.244Z,20.45
2022-08-26T23:10:30.594Z,20.49
2022-08-26T23:12:59.774Z,20.56
2022-08-26T23:15:28.628Z,20.45
2022-08-26T23:17:58.938Z,20.45
2022-08-26T23:20:29.407Z,20.57
2022-08-26T23:23:00.491Z,20.40
2022-08-26T23:25:32.353Z,20.23
2022-08-26T23:28:02.368Z,20.12
2022-08-26T23:30:34.499Z,19.97
2022-08-26T23:33:03.436Z,19.72
2022-08-26T23:35:31.389Z,19.90
2022-08-26T23:38:02.694Z,19.85
2022-08-26T23:40:34.050Z,19.94
2022-08-26T23:43:05.030Z,19.87
2022-08-26T23:45:34.952Z,19.86
2022-08-26T23:48:04.457Z,20.00
2022-08-26T23:50:50.953Z,19.79
2022-08-26T23:53:23.684Z,19.85
2022-08-26T23:55:54.062Z,19.92
2022-08-26T23:58:23.175Z,20.23
